Airport View

Enter AWOS ICAO identifier for current METAR.

ex. KFNL

KIDI 250130Z AUTO 14009KT 10SM CLR 19/16 A3014 RMK A01

25 May 2020 01:34

Frequency: 126.625

Phone: 724-463-8551

Other Area AWOS: KJST - KLBE - KDUJ - K2G9

TAF KJST 242340Z 2500/2524 14008KT P6SM BKN007 OVC015 FM250700 17005KT P6SM OVC003 FM251100 17004KT 4SM BR OVC007 FM251400 16005KT P6SM BKN015 FM251800 14007KT P6SM SCT040 BKN250